Time;durP1;ratioP1;P1;durP2;ratioP2;P2;SDS_P1;SDS_P2;PMS_P1;PMS_P2;Temp;Humidity;BMP_temperature;BMP_pressure;BME280_temperature;BME280_humidity;BME280_pressure;Samples;Min_cycle;Max_cycle;Signal;HPM_P1;HPM_P2
2022/07/11 00:00:11;;;;;;;2.50;1.20;;;17.30;99.90;;;;;;5074514;28;20447;-59
2022/07/11 00:02:40;;;;;;;3.90;1.30;;;17.30;99.90;;;;;;5074442;28;20454;-58
2022/07/11 00:05:07;;;;;;;2.37;1.33;;;17.20;99.90;;;;;;5074351;28;20451;-58
2022/07/11 00:07:33;;;;;;;4.73;1.50;;;17.20;99.90;;;;;;5074439;28;20486;-58
2022/07/11 00:10:00;;;;;;;6.10;1.80;;;17.20;99.90;;;;;;5074658;28;20458;-59
2022/07/11 00:12:27;;;;;;;4.03;1.50;;;17.10;99.90;;;;;;5074545;28;20458;-59
2022/07/11 00:14:54;;;;;;;3.30;1.63;;;17.00;99.90;;;;;;5074190;28;20494;-59
2022/07/11 00:17:20;;;;;;;5.57;1.63;;;17.00;99.90;;;;;;5074119;28;21037;-57
2022/07/11 00:19:48;;;;;;;3.73;1.30;;;16.90;99.90;;;;;;5073925;28;20538;-59
2022/07/11 00:22:15;;;;;;;8.70;1.77;;;16.90;99.90;;;;;;5073582;28;20490;-58
2022/07/11 00:24:42;;;;;;;3.27;1.47;;;16.90;99.90;;;;;;5074085;28;20555;-58
2022/07/11 00:27:08;;;;;;;4.30;1.30;;;16.80;99.90;;;;;;5074066;28;20884;-58
2022/07/11 00:29:35;;;;;;;3.87;1.47;;;16.80;99.90;;;;;;5073960;28;20534;-59
2022/07/11 00:32:01;;;;;;;5.23;1.67;;;16.80;99.90;;;;;;5074047;28;20487;-58
2022/07/11 00:34:28;;;;;;;2.20;1.27;;;16.80;99.90;;;;;;5073587;28;20525;-58
2022/07/11 00:36:55;;;;;;;4.07;1.30;;;16.80;99.90;;;;;;5073873;28;20546;-58
2022/07/11 00:39:22;;;;;;;3.63;1.77;;;16.80;99.90;;;;;;5073787;28;20462;-59
2022/07/11 00:41:48;;;;;;;4.43;1.33;;;16.70;99.90;;;;;;5073778;28;20451;-59
2022/07/11 00:44:15;;;;;;;2.77;1.23;;;16.70;99.90;;;;;;5073622;28;20810;-58
2022/07/11 00:46:41;;;;;;;6.13;1.67;;;16.70;99.90;;;;;;5073562;28;20660;-58
2022/07/11 00:49:08;;;;;;;3.10;1.87;;;16.60;99.90;;;;;;5073421;28;20538;-58
2022/07/11 00:51:35;;;;;;;7.60;1.67;;;16.70;99.90;;;;;;5073608;28;20558;-58
2022/07/11 00:54:03;;;;;;;6.30;2.07;;;16.60;99.90;;;;;;5073479;28;20509;-58
2022/07/11 00:56:31;;;;;;;3.23;1.37;;;16.60;99.90;;;;;;5073308;28;20483;-58
2022/07/11 00:58:59;;;;;;;2.87;1.57;;;16.60;99.90;;;;;;5073387;28;20777;-59
2022/07/11 01:01:26;;;;;;;10.97;1.90;;;16.60;99.90;;;;;;5073250;28;20814;-59
2022/07/11 01:03:52;;;;;;;4.40;1.63;;;16.60;99.90;;;;;;5073147;28;20531;-59
2022/07/11 01:06:19;;;;;;;4.90;1.60;;;16.60;99.90;;;;;;5073377;28;20847;-59
2022/07/11 01:08:45;;;;;;;4.57;1.87;;;16.40;99.90;;;;;;5073273;28;20454;-59
2022/07/11 01:11:15;;;;;;;8.00;1.60;;;16.40;99.90;;;;;;5073117;28;20451;-59
2022/07/11 01:13:42;;;;;;;6.63;1.47;;;16.40;99.90;;;;;;5073036;28;21001;-58
2022/07/11 01:16:13;;;;;;;4.30;1.30;;;16.40;99.90;;;;;;5072937;28;20964;-59
2022/07/11 01:18:41;;;;;;;3.33;1.23;;;16.30;99.90;;;;;;5073226;28;20451;-58
2022/07/11 01:21:17;;;;;;;3.17;1.30;;;16.30;99.90;;;;;;5073090;28;20538;-59
2022/07/11 01:23:45;;;;;;;4.77;1.83;;;16.30;99.90;;;;;;5073083;28;20540;-59
2022/07/11 01:26:13;;;;;;;3.60;1.10;;;16.30;99.90;;;;;;5072989;28;20454;-59
2022/07/11 01:28:39;;;;;;;3.03;1.30;;;16.30;99.90;;;;;;5072776;28;20538;-59
2022/07/11 01:31:05;;;;;;;5.60;1.40;;;16.30;99.90;;;;;;5073052;28;20453;-58
2022/07/11 01:33:32;;;;;;;7.73;1.63;;;16.20;99.90;;;;;;5072893;28;20472;-59
2022/07/11 01:36:00;;;;;;;2.60;1.43;;;16.20;99.90;;;;;;5072863;28;20451;-59
2022/07/11 01:38:26;;;;;;;3.50;1.50;;;16.20;99.90;;;;;;5072839;28;20962;-59
2022/07/11 01:40:54;;;;;;;4.23;1.67;;;16.20;99.90;;;;;;5073049;28;20452;-60
2022/07/11 01:43:21;;;;;;;5.97;1.70;;;16.10;99.90;;;;;;5072676;28;20439;-58
2022/07/11 01:45:50;;;;;;;5.90;1.77;;;16.20;99.90;;;;;;5072856;28;20450;-59
2022/07/11 01:48:17;;;;;;;7.40;1.47;;;16.20;99.90;;;;;;5072777;28;20443;-59
2022/07/11 01:50:43;;;;;;;8.90;1.70;;;16.20;99.90;;;;;;5072807;28;20916;-59
2022/07/11 01:53:10;;;;;;;3.70;1.40;;;16.10;99.90;;;;;;5072631;28;20477;-59
2022/07/11 01:55:36;;;;;;;3.53;1.37;;;16.10;99.90;;;;;;5072539;28;20985;-58
2022/07/11 01:58:04;;;;;;;3.00;1.13;;;16.10;99.90;;;;;;5072496;28;20554;-59
2022/07/11 02:00:30;;;;;;;6.77;1.40;;;16.10;99.90;;;;;;5072738;28;20534;-59
2022/07/11 02:02:57;;;;;;;5.17;1.30;;;16.00;99.90;;;;;;5072711;28;20448;-59
2022/07/11 02:05:23;;;;;;;4.60;1.07;;;16.10;99.90;;;;;;5072519;28;20534;-59
2022/07/11 02:10:34;;;;;;;2.83;1.10;;;16.10;99.90;;;;;;5072563;28;20473;-59
2022/07/11 02:13:01;;;;;;;5.40;1.47;;;16.10;99.90;;;;;;5072595;28;20443;-59
2022/07/11 02:15:31;;;;;;;7.60;1.57;;;16.10;99.90;;;;;;5072555;28;20664;-59
2022/07/11 02:17:58;;;;;;;5.80;1.63;;;16.10;99.90;;;;;;5072514;28;20450;-59
2022/07/11 02:20:24;;;;;;;6.23;1.40;;;16.10;99.90;;;;;;5072425;28;20954;-59
2022/07/11 02:22:51;;;;;;;4.60;1.50;;;16.10;99.90;;;;;;5072338;28;20960;-60
2022/07/11 02:25:18;;;;;;;4.00;1.50;;;16.00;99.90;;;;;;5072477;28;20458;-58
2022/07/11 02:27:45;;;;;;;3.47;1.40;;;16.00;99.90;;;;;;5072446;28;20454;-58
2022/07/11 02:30:12;;;;;;;4.57;1.20;;;15.90;99.90;;;;;;5072388;28;20447;-59
2022/07/11 02:32:40;;;;;;;5.80;1.67;;;15.90;99.90;;;;;;5072373;28;20547;-59
2022/07/11 02:35:07;;;;;;;5.47;1.40;;;15.80;99.90;;;;;;5072129;28;20842;-59
2022/07/11 02:37:34;;;;;;;6.10;1.63;;;15.80;99.90;;;;;;5072467;28;20451;-59
2022/07/11 02:40:00;;;;;;;6.80;2.00;;;15.80;99.90;;;;;;5072371;28;20538;-59
2022/07/11 02:42:27;;;;;;;5.73;1.70;;;15.80;99.90;;;;;;5072318;28;20451;-59
2022/07/11 02:44:53;;;;;;;6.63;1.63;;;15.80;99.90;;;;;;5073459;28;20485;-59
2022/07/11 02:47:20;;;;;;;5.33;1.43;;;15.80;99.90;;;;;;5075828;28;20447;-59
2022/07/11 02:49:48;;;;;;;5.30;1.70;;;15.70;99.90;;;;;;5075613;28;20964;-59
2022/07/11 02:52:15;;;;;;;3.70;1.20;;;15.70;99.90;;;;;;5075921;28;20458;-59
2022/07/11 02:54:41;;;;;;;6.07;1.63;;;15.70;99.90;;;;;;5075602;28;21024;-59
2022/07/11 02:57:08;;;;;;;5.30;1.37;;;15.70;99.90;;;;;;5075684;28;20826;-58
2022/07/11 02:59:34;;;;;;;5.67;1.90;;;15.70;99.90;;;;;;5075950;28;20439;-57
2022/07/11 03:02:04;;;;;;;2.73;1.60;;;15.80;99.90;;;;;;5075531;28;20534;-58
2022/07/11 03:04:32;;;;;;;3.93;1.33;;;15.70;99.90;;;;;;5075861;28;20447;-58
2022/07/11 03:07:00;;;;;;;3.43;1.40;;;15.70;99.90;;;;;;5075496;28;20813;-59
2022/07/11 03:09:26;;;;;;;5.77;1.40;;;15.70;99.90;;;;;;5075540;28;20942;-58
2022/07/11 03:11:53;;;;;;;4.53;1.70;;;15.70;99.90;;;;;;5075388;28;20794;-59
2022/07/11 03:14:19;;;;;;;3.90;1.43;;;15.80;99.90;;;;;;5075310;28;20471;-59
2022/07/11 03:16:46;;;;;;;5.07;1.20;;;15.70;99.90;;;;;;5075273;28;20448;-58
2022/07/11 03:19:13;;;;;;;3.17;1.13;;;15.70;99.90;;;;;;5075459;28;20458;-59
2022/07/11 03:21:39;;;;;;;6.90;2.20;;;15.70;99.90;;;;;;5075203;28;20955;-58
2022/07/11 03:24:07;;;;;;;7.33;1.90;;;15.70;99.90;;;;;;5075109;28;20943;-59
2022/07/11 03:26:33;;;;;;;4.03;1.30;;;15.60;99.90;;;;;;5075150;28;20451;-59
2022/07/11 03:29:00;;;;;;;4.30;2.10;;;15.60;99.90;;;;;;5075105;28;20531;-59
2022/07/11 03:31:26;;;;;;;4.10;1.43;;;15.60;99.90;;;;;;5074910;28;20447;-59
2022/07/11 03:33:53;;;;;;;4.87;1.57;;;15.60;99.90;;;;;;5074992;28;20447;-59
2022/07/11 03:36:19;;;;;;;3.83;1.40;;;15.60;99.90;;;;;;5075072;28;20456;-59
2022/07/11 03:38:46;;;;;;;3.80;1.43;;;15.60;99.90;;;;;;5074987;28;20447;-59
2022/07/11 03:41:14;;;;;;;5.23;1.53;;;15.50;99.90;;;;;;5074829;28;20453;-59
2022/07/11 03:43:41;;;;;;;2.70;1.50;;;15.50;99.90;;;;;;5074874;28;20473;-59
2022/07/11 03:46:07;;;;;;;4.43;1.60;;;15.50;99.90;;;;;;5074651;28;20458;-59
2022/07/11 03:48:34;;;;;;;4.37;1.17;;;15.50;99.90;;;;;;5074904;28;20455;-59
2022/07/11 03:51:00;;;;;;;4.27;1.50;;;15.50;99.90;;;;;;5074831;28;20447;-59
2022/07/11 03:53:28;;;;;;;11.13;2.20;;;15.50;99.90;;;;;;5074689;28;20443;-59
2022/07/11 03:55:54;;;;;;;3.87;1.70;;;15.50;99.90;;;;;;5073741;28;20860;-59
2022/07/11 03:58:22;;;;;;;6.47;1.73;;;15.50;99.90;;;;;;5074166;28;20558;-59
2022/07/11 04:00:49;;;;;;;6.43;1.87;;;15.50;99.90;;;;;;5074397;28;20447;-59
2022/07/11 04:03:15;;;;;;;5.77;1.93;;;15.50;99.90;;;;;;5074491;28;20459;-59
2022/07/11 04:05:42;;;;;;;4.60;2.20;;;15.50;99.90;;;;;;5074502;28;20985;-59
2022/07/11 04:08:08;;;;;;;6.10;1.80;;;15.50;99.90;;;;;;5074395;28;20877;-59
2022/07/11 04:10:35;;;;;;;8.07;1.93;;;15.50;99.90;;;;;;5074272;28;20447;-59
2022/07/11 04:13:02;;;;;;;7.53;1.67;;;15.50;99.90;;;;;;5074209;28;20447;-59
2022/07/11 04:15:29;;;;;;;5.90;1.50;;;15.40;99.90;;;;;;5073935;28;20482;-59
2022/07/11 04:17:56;;;;;;;4.03;1.50;;;15.40;99.90;;;;;;5074234;28;20462;-59
2022/07/11 04:20:22;;;;;;;4.00;1.47;;;15.50;99.90;;;;;;5074121;28;20542;-58
2022/07/11 04:22:49;;;;;;;2.10;1.50;;;15.40;99.90;;;;;;5074093;28;20447;-58
2022/07/11 04:25:15;;;;;;;2.83;1.50;;;15.50;99.90;;;;;;5073927;28;20452;-57
2022/07/11 04:27:42;;;;;;;4.50;3.27;;;15.50;99.90;;;;;;5073761;28;20538;-59
2022/07/11 04:30:09;;;;;;;6.47;1.70;;;15.50;99.90;;;;;;5074004;28;20535;-59
2022/07/11 04:32:37;;;;;;;5.83;1.50;;;15.50;99.90;;;;;;5074124;28;20550;-58
2022/07/11 04:35:04;;;;;;;4.80;1.60;;;15.50;99.90;;;;;;5073709;28;20482;-58
2022/07/11 04:37:30;;;;;;;4.43;1.60;;;15.60;99.90;;;;;;5073792;28;20832;-58
2022/07/11 04:39:57;;;;;;;7.10;1.83;;;15.50;99.90;;;;;;5073674;28;20443;-58
2022/07/11 04:42:23;;;;;;;8.63;1.73;;;15.50;99.90;;;;;;5073489;28;20815;-58
2022/07/11 04:44:50;;;;;;;5.13;1.53;;;15.60;99.90;;;;;;5073776;28;20457;-58
2022/07/11 04:47:16;;;;;;;5.10;1.70;;;15.60;99.90;;;;;;5073579;28;20455;-58
2022/07/11 04:49:46;;;;;;;4.30;1.40;;;15.70;99.90;;;;;;5073325;28;21043;-58
2022/07/11 04:52:13;;;;;;;5.03;1.57;;;15.70;99.90;;;;;;5073455;28;20455;-58
2022/07/11 04:54:39;;;;;;;3.73;1.50;;;15.80;99.90;;;;;;5073196;28;20471;-58
2022/07/11 04:57:07;;;;;;;6.90;1.53;;;15.80;99.90;;;;;;5073248;28;20482;-58
2022/07/11 04:59:33;;;;;;;7.27;1.90;;;15.90;99.90;;;;;;5073684;28;20534;-58
2022/07/11 05:02:00;;;;;;;4.10;1.90;;;16.00;99.90;;;;;;5073429;28;20451;-58
2022/07/11 05:04:26;;;;;;;3.63;1.30;;;16.00;99.90;;;;;;5073507;28;20447;-58
2022/07/11 05:06:54;;;;;;;5.97;1.77;;;16.10;99.90;;;;;;5072926;28;20938;-58
2022/07/11 05:09:20;;;;;;;4.30;1.83;;;16.20;99.90;;;;;;5072828;28;20572;-57
2022/07/11 05:11:47;;;;;;;2.93;1.43;;;16.30;99.90;;;;;;5073322;28;20450;-58
2022/07/11 05:14:13;;;;;;;7.27;1.60;;;16.40;99.90;;;;;;5073113;28;20443;-58
2022/07/11 05:16:40;;;;;;;6.50;1.90;;;16.40;99.90;;;;;;5073282;28;20485;-59
2022/07/11 05:19:07;;;;;;;3.73;1.67;;;16.50;99.90;;;;;;5073138;28;20447;-58
2022/07/11 05:21:33;;;;;;;3.17;1.40;;;16.50;99.90;;;;;;5073044;28;20455;-58
2022/07/11 05:24:01;;;;;;;3.20;1.53;;;16.60;99.90;;;;;;5073210;28;20447;-60
2022/07/11 05:26:27;;;;;;;6.60;1.50;;;16.70;99.90;;;;;;5073061;28;20451;-60
2022/07/11 05:28:54;;;;;;;7.17;2.27;;;16.80;99.90;;;;;;5072965;28;20542;-59
2022/07/11 05:31:20;;;;;;;6.27;3.20;;;17.00;99.90;;;;;;5072979;28;20943;-59
2022/07/11 05:33:47;;;;;;;4.77;1.77;;;17.10;99.90;;;;;;5073440;28;20454;-58
2022/07/11 05:36:13;;;;;;;8.97;1.77;;;17.20;99.90;;;;;;5073193;28;20485;-59
2022/07/11 05:38:40;;;;;;;8.03;2.00;;;17.30;99.90;;;;;;5072844;28;20457;-59
2022/07/11 05:41:08;;;;;;;3.83;1.50;;;17.40;99.90;;;;;;5072762;28;20447;-60
2022/07/11 05:43:34;;;;;;;9.40;2.23;;;17.50;99.90;;;;;;5072957;28;20884;-58
2022/07/11 05:46:05;;;;;;;4.60;1.40;;;17.60;99.90;;;;;;5072791;28;20447;-59
2022/07/11 05:48:31;;;;;;;6.73;2.03;;;17.70;99.90;;;;;;5072648;28;20980;-59
2022/07/11 05:50:58;;;;;;;5.70;2.10;;;17.80;99.90;;;;;;5072682;28;20451;-59
2022/07/11 05:53:24;;;;;;;4.17;1.80;;;17.80;99.90;;;;;;5072843;28;20776;-59
2022/07/11 05:55:51;;;;;;;8.30;1.90;;;17.90;99.90;;;;;;5072586;28;20506;-59
2022/07/11 05:58:19;;;;;;;5.10;3.10;;;18.10;99.90;;;;;;5072670;28;20982;-59
2022/07/11 06:00:45;;;;;;;5.03;1.67;;;18.20;99.90;;;;;;5072456;28;20486;-59
2022/07/11 06:03:11;;;;;;;2.33;1.40;;;18.30;99.90;;;;;;5072602;28;21001;-59
2022/07/11 06:05:38;;;;;;;2.77;1.70;;;18.30;99.90;;;;;;5072430;28;20802;-59
2022/07/11 06:10:49;;;;;;;6.20;2.00;;;18.40;99.90;;;;;;5072848;28;20430;-59
2022/07/11 06:13:16;;;;;;;4.17;1.60;;;18.40;99.90;;;;;;5072623;28;20462;-59
2022/07/11 06:15:44;;;;;;;5.60;2.30;;;18.40;99.90;;;;;;5072196;28;20842;-59
2022/07/11 06:18:10;;;;;;;6.57;2.10;;;18.30;99.90;;;;;;5072297;28;20545;-59
2022/07/11 06:20:37;;;;;;;4.83;1.80;;;18.40;99.90;;;;;;5075052;28;20447;-60
2022/07/11 06:23:05;;;;;;;5.20;2.00;;;18.50;99.90;;;;;;5076389;28;20447;-59
2022/07/11 06:25:32;;;;;;;3.40;1.50;;;18.50;99.90;;;;;;5076183;28;20938;-59
2022/07/11 06:28:00;;;;;;;4.20;1.60;;;18.60;99.90;;;;;;5076235;28;20456;-59
2022/07/11 06:30:27;;;;;;;5.10;1.80;;;18.70;99.90;;;;;;5076156;28;20447;-60
2022/07/11 06:32:55;;;;;;;4.67;2.10;;;18.90;99.90;;;;;;5075886;28;20458;-59
2022/07/11 06:35:22;;;;;;;5.87;1.90;;;18.90;99.90;;;;;;5076063;28;20467;-59
2022/07/11 06:37:48;;;;;;;5.47;1.60;;;18.90;99.90;;;;;;5075832;28;20950;-59
2022/07/11 06:40:17;;;;;;;7.10;1.60;;;19.00;99.90;;;;;;5076147;28;20456;-59
2022/07/11 06:42:43;;;;;;;8.00;2.00;;;19.00;99.90;;;;;;5075950;28;20857;-60
2022/07/11 06:45:11;;;;;;;4.70;1.80;;;19.10;99.90;;;;;;5075921;28;20447;-59
2022/07/11 06:47:37;;;;;;;7.50;2.07;;;19.10;99.90;;;;;;5076029;28;20804;-59
2022/07/11 06:50:07;;;;;;;6.13;2.27;;;19.10;99.90;;;;;;5075830;28;20885;-59
2022/07/11 06:52:33;;;;;;;3.97;1.70;;;19.10;99.90;;;;;;5075722;28;20444;-59
2022/07/11 06:55:00;;;;;;;3.93;1.60;;;19.20;99.90;;;;;;5075497;28;20957;-59
2022/07/11 06:57:26;;;;;;;6.33;1.90;;;19.20;99.90;;;;;;5075592;28;20474;-59
2022/07/11 06:59:53;;;;;;;6.93;1.53;;;19.40;99.90;;;;;;5067340;28;20543;-58
2022/07/11 07:02:19;;;;;;;6.17;1.87;;;19.30;99.90;;;;;;5071229;28;20494;-60
2022/07/11 07:04:46;;;;;;;4.83;1.70;;;19.30;99.90;;;;;;5075573;28;20807;-58
2022/07/11 07:07:14;;;;;;;3.87;1.70;;;19.30;99.90;;;;;;5068222;28;20453;-59
2022/07/11 07:09:41;;;;;;;3.50;1.77;;;19.30;99.90;;;;;;5056042;28;20546;-59
2022/07/11 07:12:08;;;;;;;4.70;1.80;;;19.40;99.90;;;;;;5065456;28;20459;-57
2022/07/11 07:14:34;;;;;;;4.50;1.53;;;19.40;99.90;;;;;;5063059;28;20505;-59
2022/07/11 07:17:01;;;;;;;5.57;1.70;;;19.60;99.90;;;;;;5075373;28;20562;-59
2022/07/11 07:19:27;;;;;;;4.80;1.77;;;19.70;99.90;;;;;;5075084;28;20443;-58
2022/07/11 07:21:54;;;;;;;5.80;1.60;;;19.80;99.90;;;;;;5075122;28;20538;-58
2022/07/11 07:24:22;;;;;;;6.90;1.50;;;19.80;99.90;;;;;;5075071;28;20451;-57
2022/07/11 07:26:48;;;;;;;4.33;1.70;;;19.80;99.90;;;;;;5074933;28;20452;-59
2022/07/11 07:29:15;;;;;;;6.93;2.10;;;19.90;99.90;;;;;;5075365;28;20534;-58
2022/07/11 07:31:41;;;;;;;2.70;1.60;;;20.20;99.90;;;;;;5075077;28;20887;-59
2022/07/11 07:34:09;;;;;;;3.53;1.47;;;20.10;99.90;;;;;;5071069;28;20478;-58
2022/07/11 07:36:35;;;;;;;6.40;1.50;;;20.20;99.90;;;;;;5054868;28;20831;-59
2022/07/11 07:39:02;;;;;;;3.10;1.83;;;20.20;99.90;;;;;;5054787;28;20455;-59
2022/07/11 07:41:30;;;;;;;3.77;1.50;;;20.30;99.90;;;;;;5054478;28;20978;-58
2022/07/11 07:43:56;;;;;;;5.60;1.60;;;20.30;99.90;;;;;;5054549;28;20985;-59
2022/07/11 07:46:23;;;;;;;3.13;1.10;;;20.30;99.90;;;;;;5054551;28;20453;-59
2022/07/11 07:48:49;;;;;;;6.77;1.57;;;20.30;99.90;;;;;;5054725;28;20452;-58
2022/07/11 07:51:16;;;;;;;2.60;1.40;;;20.40;99.90;;;;;;5054620;28;20476;-58
2022/07/11 07:53:42;;;;;;;5.17;1.80;;;20.60;99.90;;;;;;5054572;28;20955;-59
2022/07/11 07:56:09;;;;;;;4.30;1.73;;;20.90;99.90;;;;;;5058665;28;20472;-59
2022/07/11 07:58:38;;;;;;;3.27;1.90;;;21.00;99.90;;;;;;5074495;28;20526;-63
2022/07/11 08:03:48;;;;;;;10.97;2.33;;;21.10;99.90;;;;;;5068749;28;20195;-62
2022/07/11 08:06:15;;;;;;;3.63;1.97;;;21.20;99.90;;;;;;5073791;28;20447;-60
2022/07/11 08:08:41;;;;;;;9.77;1.70;;;21.30;99.90;;;;;;5073583;28;20450;-60
2022/07/11 08:11:08;;;;;;;4.93;1.47;;;21.30;99.90;;;;;;5073838;28;20482;-60
2022/07/11 08:13:35;;;;;;;11.90;1.80;;;21.20;99.90;;;;;;5075914;28;20890;-60
2022/07/11 08:16:02;;;;;;;2.70;1.50;;;21.30;99.90;;;;;;5094401;28;20478;-63
2022/07/11 08:18:29;;;;;;;3.20;1.53;;;21.30;99.90;;;;;;5076120;28;20810;-62
2022/07/11 08:20:56;;;;;;;6.88;2.10;;;21.40;99.90;;;;;;5073855;28;20454;-62
2022/07/11 08:23:22;;;;;;;5.70;1.20;;;21.50;99.90;;;;;;5072640;28;20545;-62
2022/07/11 08:25:49;;;;;;;5.60;1.77;;;21.60;99.90;;;;;;5068319;28;20475;-63
2022/07/11 08:28:15;;;;;;;2.33;1.47;;;21.70;99.90;;;;;;5056635;28;20451;-63
2022/07/11 08:30:42;;;;;;;6.63;1.70;;;21.80;99.90;;;;;;5068518;28;20954;-65
2022/07/11 08:33:09;;;;;;;4.27;2.17;;;21.80;99.90;;;;;;5072490;28;20803;-59
2022/07/11 08:35:36;;;;;;;7.63;2.17;;;21.80;99.90;;;;;;5073403;28;20458;-66
2022/07/11 08:38:03;;;;;;;2.77;1.30;;;21.50;99.90;;;;;;5072655;28;20818;-66
2022/07/11 08:40:29;;;;;;;5.10;2.00;;;21.50;99.90;;;;;;5070688;28;20609;-66
2022/07/11 08:42:58;;;;;;;2.80;1.63;;;21.40;99.90;;;;;;5055950;28;20482;-66
2022/07/11 08:45:30;;;;;;;3.87;1.60;;;21.50;99.90;;;;;;5073685;28;20557;-66
2022/07/11 08:47:58;;;;;;;5.27;1.60;;;21.70;99.90;;;;;;5073151;28;20473;-66
2022/07/11 08:50:28;;;;;;;4.10;1.33;;;21.80;99.90;;;;;;5070414;28;20455;-66
2022/07/11 08:52:54;;;;;;;4.10;1.63;;;21.90;99.90;;;;;;5072519;28;20462;-66
2022/07/11 08:55:21;;;;;;;7.77;1.53;;;22.10;99.90;;;;;;5072159;28;21686;-66
2022/07/11 08:57:49;;;;;;;11.17;3.00;;;22.20;99.90;;;;;;5072209;28;20497;-66
2022/07/11 09:00:16;;;;;;;4.40;1.43;;;22.20;99.90;;;;;;5071760;28;20970;-66
2022/07/11 09:02:44;;;;;;;2.40;1.27;;;21.80;99.90;;;;;;5055133;28;20939;-66
2022/07/11 09:05:11;;;;;;;6.13;1.67;;;21.90;99.90;;;;;;5059974;28;20462;-66
2022/07/11 09:07:44;;;;;;;2.60;1.40;;;22.00;99.90;;;;;;5072997;28;20780;-66
2022/07/11 09:10:12;;;;;;;7.80;1.50;;;22.20;99.90;;;;;;5072965;28;20490;-66
2022/07/11 09:12:39;;;;;;;6.50;1.33;;;22.10;99.90;;;;;;5073065;28;20930;-66
2022/07/11 09:15:07;;;;;;;4.30;1.70;;;21.80;99.90;;;;;;5072978;28;20530;-66
2022/07/11 09:17:33;;;;;;;3.13;1.20;;;22.20;99.90;;;;;;5072910;28;20850;-66
2022/07/11 09:20:00;;;;;;;3.37;1.43;;;22.40;99.90;;;;;;5072910;28;20455;-65
2022/07/11 09:25:31;;;;;;;10.13;1.57;;;22.60;99.90;;;;;;5064882;28;20509;-60
2022/07/11 09:28:03;;;;;;;4.57;1.30;;;22.40;99.90;;;;;;5073090;28;20467;-59
2022/07/11 09:30:32;;;;;;;1.83;1.30;;;22.20;99.90;;;;;;5072763;28;20444;-60
2022/07/11 09:32:59;;;;;;;5.20;1.60;;;22.30;99.90;;;;;;5071665;28;20457;-60
2022/07/11 09:35:28;;;;;;;1.90;1.10;;;22.30;99.90;;;;;;5065062;28;20487;-60
2022/07/11 09:37:55;;;;;;;4.73;1.40;;;22.70;99.90;;;;;;5056313;28;20533;-60
2022/07/11 09:40:25;;;;;;;3.83;1.30;;;22.90;99.90;;;;;;5069984;28;20457;-62
2022/07/11 09:42:54;;;;;;;4.10;1.80;;;22.70;99.90;;;;;;5072693;28;20451;-60
2022/07/11 09:45:21;;;;;;;2.27;1.43;;;22.50;99.90;;;;;;5071528;28;20462;-60
2022/07/11 09:47:49;;;;;;;2.57;1.30;;;22.70;99.90;;;;;;5071328;28;20956;-59
2022/07/11 09:50:19;;;;;;;5.07;1.63;;;22.40;99.90;;;;;;5072572;28;20451;-59
2022/07/11 09:52:59;;;;;;;1.67;0.97;;;22.40;99.90;;;;;;5066140;28;20447;-59
2022/07/11 09:55:27;;;;;;;1.37;1.27;;;22.50;99.90;;;;;;5075538;28;20526;-59
2022/07/11 09:57:54;;;;;;;2.80;1.10;;;22.50;99.90;;;;;;5074625;28;20478;-60
2022/07/11 10:00:21;;;;;;;4.30;1.20;;;22.80;99.90;;;;;;5076574;28;20538;-60
2022/07/11 10:02:49;;;;;;;2.17;1.40;;;22.80;99.90;;;;;;5076580;28;20443;-58
2022/07/11 10:05:15;;;;;;;3.73;1.30;;;22.80;99.90;;;;;;5075608;28;21019;-57
2022/07/11 10:07:42;;;;;;;5.30;1.40;;;22.70;99.90;;;;;;5076374;28;20542;-56
2022/07/11 10:10:10;;;;;;;3.30;1.47;;;22.60;99.90;;;;;;5076166;28;20520;-58
2022/07/11 10:12:39;;;;;;;1.57;1.10;;;22.60;99.90;;;;;;5090451;28;20461;-61
2022/07/11 10:15:09;;;;;;;1.73;0.90;;;22.60;99.90;;;;;;5086250;28;20504;-59
2022/07/11 10:17:44;;;;;;;5.07;1.53;;;23.10;99.90;;;;;;5076213;28;20506;-59
2022/07/11 10:20:16;;;;;;;1.17;0.80;;;23.40;99.90;;;;;;5075203;28;20814;-60
2022/07/11 10:22:50;;;;;;;2.70;1.10;;;23.50;99.90;;;;;;5076093;28;20478;-59
2022/07/11 10:25:23;;;;;;;2.00;1.30;;;23.20;99.90;;;;;;5076246;28;20470;-60
2022/07/11 10:28:07;;;;;;;2.97;1.10;;;23.10;99.90;;;;;;5076155;28;20487;-60
2022/07/11 10:30:47;;;;;;;3.20;1.00;;;22.90;99.90;;;;;;5059850;28;20522;-60
2022/07/11 10:33:15;;;;;;;2.60;1.00;;;22.60;99.90;;;;;;5073586;28;20447;-61
2022/07/11 10:35:44;;;;;;;2.97;1.17;;;23.00;99.90;;;;;;5075002;28;20497;-60
2022/07/11 10:38:10;;;;;;;3.00;1.30;;;23.50;99.90;;;;;;5075690;28;20721;-61
2022/07/11 10:40:48;;;;;;;2.90;1.10;;;23.60;99.90;;;;;;5073635;28;20491;-60
2022/07/11 10:43:32;;;;;;;2.30;1.37;;;23.50;99.90;;;;;;5072727;28;20451;-60
2022/07/11 10:46:00;;;;;;;1.20;0.93;;;23.40;99.90;;;;;;5072583;28;20451;-60
2022/07/11 10:48:28;;;;;;;3.70;1.07;;;23.60;99.90;;;;;;5075642;28;20486;-60
2022/07/11 10:51:03;;;;;;;2.20;1.00;;;24.00;99.90;;;;;;5065622;28;20458;-60
2022/07/11 10:53:33;;;;;;;2.07;1.10;;;24.20;99.90;;;;;;5064090;28;20870;-61
2022/07/11 10:56:11;;;;;;;2.03;1.13;;;24.50;99.90;;;;;;5074957;28;21006;-64
2022/07/11 10:58:43;;;;;;;4.78;1.05;;;24.60;99.90;;;;;;5075255;28;20464;-64
2022/07/11 11:01:11;;;;;;;2.50;1.20;;;24.90;99.90;;;;;;5072075;28;20186;-59
2022/07/11 11:03:38;;;;;;;1.23;0.77;;;24.80;99.90;;;;;;5072763;28;20483;-60
2022/07/11 11:06:05;;;;;;;3.47;1.20;;;24.60;99.90;;;;;;5074793;28;20459;-60
2022/07/11 11:08:43;;;;;;;1.53;1.00;;;24.40;99.90;;;;;;5074376;28;20459;-61
2022/07/11 11:11:37;;;;;;;3.53;1.00;;;24.40;99.90;;;;;;5074662;28;20531;-59
2022/07/11 11:14:26;;;;;;;3.00;0.90;;;24.80;99.90;;;;;;5072759;28;20502;-59
2022/07/11 11:16:53;;;;;;;1.53;1.10;;;24.60;99.20;;;;;;5074467;28;20731;-60
2022/07/11 11:19:52;;;;;;;3.03;0.90;;;24.40;99.90;;;;;;5075570;28;20857;-60
2022/07/11 11:22:19;;;;;;;1.57;0.90;;;24.10;99.90;;;;;;5073551;28;20444;-59
2022/07/11 11:24:47;;;;;;;1.77;0.90;;;24.10;99.90;;;;;;5075234;28;20490;-59
2022/07/11 11:27:18;;;;;;;1.53;1.20;;;24.30;99.90;;;;;;5074894;28;20539;-58
2022/07/11 11:29:46;;;;;;;3.10;0.90;;;24.40;99.90;;;;;;5073639;28;20456;-59
2022/07/11 11:32:13;;;;;;;3.33;1.47;;;24.50;99.90;;;;;;5073803;28;20457;-59
2022/07/11 11:34:41;;;;;;;1.20;0.97;;;24.90;99.90;;;;;;5067633;28;20490;-61
2022/07/11 11:37:07;;;;;;;1.60;0.90;;;24.90;99.90;;;;;;5063756;28;20830;-61
2022/07/11 11:39:35;;;;;;;1.40;0.90;;;24.70;99.90;;;;;;5072755;28;20542;-59
2022/07/11 11:42:05;;;;;;;3.30;1.10;;;24.60;99.90;;;;;;5067299;28;20483;-56
2022/07/11 11:44:31;;;;;;;2.53;0.90;;;24.60;99.90;;;;;;5072124;28;20196;-59
2022/07/11 11:46:59;;;;;;;1.50;0.80;;;24.50;99.90;;;;;;5071979;28;21009;-58
2022/07/11 11:49:26;;;;;;;1.83;1.00;;;24.40;99.80;;;;;;5069178;28;20996;-59
2022/07/11 11:51:55;;;;;;;2.47;1.27;;;24.20;99.90;;;;;;5070665;28;20458;-56
2022/07/11 11:54:24;;;;;;;1.40;0.83;;;24.30;99.90;;;;;;5073449;28;20490;-59
2022/07/11 11:56:51;;;;;;;1.10;0.90;;;24.40;99.20;;;;;;5072137;28;20483;-57
2022/07/11 11:59:18;;;;;;;2.40;0.90;;;24.80;99.20;;;;;;5072051;28;20455;-58
2022/07/11 12:01:48;;;;;;;3.30;1.57;;;25.20;97.70;;;;;;5070794;28;20538;-60
2022/07/11 12:04:17;;;;;;;1.50;0.93;;;25.30;97.20;;;;;;5067173;28;20455;-56
2022/07/11 12:06:46;;;;;;;2.43;0.83;;;24.80;96.80;;;;;;5072273;28;20991;-55
2022/07/11 12:09:15;;;;;;;3.73;1.20;;;24.70;97.50;;;;;;5071810;28;20447;-60
2022/07/11 12:11:44;;;;;;;1.93;0.90;;;24.60;97.20;;;;;;5073280;28;20850;-59
2022/07/11 12:14:12;;;;;;;1.97;0.80;;;24.50;96.60;;;;;;5068906;28;20458;-59
2022/07/11 12:16:42;;;;;;;3.07;0.90;;;24.50;98.10;;;;;;5068867;28;20455;-60
2022/07/11 12:19:11;;;;;;;2.30;1.10;;;24.40;97.40;;;;;;5059140;28;20455;-59
2022/07/11 12:21:40;;;;;;;1.30;0.70;;;24.30;97.40;;;;;;5072756;28;20857;-58
2022/07/11 12:24:09;;;;;;;1.93;0.90;;;24.20;97.60;;;;;;5064607;28;20570;-58
2022/07/11 12:26:38;;;;;;;3.57;1.10;;;24.10;97.60;;;;;;5072694;28;20539;-58
2022/07/11 12:29:10;;;;;;;1.77;0.93;;;24.40;98.60;;;;;;5068650;28;20833;-57
2022/07/11 12:31:45;;;;;;;0.80;0.73;;;24.80;98.10;;;;;;5068742;28;20467;-59
2022/07/11 12:34:12;;;;;;;1.00;0.70;;;25.00;96.90;;;;;;5053862;28;20538;-59
2022/07/11 12:36:40;;;;;;;1.73;0.80;;;24.90;96.10;;;;;;5057432;28;21034;-61
2022/07/11 12:39:07;;;;;;;2.67;0.87;;;24.60;96.00;;;;;;5053568;28;20514;-58
2022/07/11 12:41:34;;;;;;;3.50;0.90;;;24.10;96.40;;;;;;5064481;28;20757;-60
2022/07/11 12:46:47;;;;;;;3.30;1.00;;;24.10;97.40;;;;;;5063073;28;20566;-58
2022/07/11 12:49:15;;;;;;;2.67;0.80;;;24.00;97.10;;;;;;5071169;28;20448;-58
2022/07/11 12:51:45;;;;;;;1.80;0.80;;;24.10;96.90;;;;;;5071854;28;20448;-57
2022/07/11 12:54:13;;;;;;;1.43;0.97;;;24.20;97.40;;;;;;5072340;28;20451;-52
2022/07/11 12:56:40;;;;;;;1.10;0.90;;;24.40;95.90;;;;;;5072994;28;20566;-61
2022/07/11 12:59:18;;;;;;;1.13;0.80;;;24.50;96.30;;;;;;5072755;28;20463;-61
2022/07/11 13:01:55;;;;;;;1.47;0.80;;;24.70;95.10;;;;;;5067500;28;20443;-61